Time;durP1;ratioP1;P1;durP2;ratioP2;P2;SDS_P1;SDS_P2;PMS_P1;PMS_P2;Temp;Humidity;BMP_temperature;BMP_pressure;BME280_temperature;BME280_humidity;BME280_pressure;Samples;Min_cycle;Max_cycle;Signal;HPM_P1;HPM_P2
2023/03/02 00:00:57;;;;;;;;;55.33;44.00;;;;;2.64;50.59;101770.19;4903852;28;45664;-72
2023/03/02 00:03:23;;;;;;;;;42.33;38.67;;;;;2.59;50.81;101761.09;4914274;28;45377;-73
2023/03/02 00:05:48;;;;;;;;;55.00;42.00;;;;;2.55;52.57;101769.50;4887619;28;45387;-73
2023/03/02 00:08:18;;;;;;;;;47.67;39.33;;;;;2.45;52.25;101755.78;4893516;28;45440;-73
2023/03/02 00:10:44;;;;;;;;;61.00;43.67;;;;;2.45;50.88;101757.50;4902623;28;45282;-73
2023/03/02 00:13:12;;;;;;;;;38.00;32.67;;;;;2.38;51.87;101755.22;4913397;28;45268;-73
2023/03/02 00:15:37;;;;;;;;;54.33;44.00;;;;;2.44;50.37;101761.81;4904068;28;45492;-73
2023/03/02 00:18:03;;;;;;;;;60.00;46.00;;;;;2.24;52.21;101733.34;4896867;28;45298;-73
2023/03/02 00:20:28;;;;;;;;;62.33;45.33;;;;;2.45;52.27;101775.75;4887977;28;46131;-73
2023/03/02 00:22:53;;;;;;;;;45.33;38.00;;;;;2.43;52.72;101775.63;4915273;28;45278;-73
2023/03/02 00:25:19;;;;;;;;;70.33;54.00;;;;;2.42;52.03;101770.34;4905895;28;47631;-73
2023/03/02 00:27:44;;;;;;;;;69.67;53.33;;;;;2.30;53.35;101753.75;4916522;28;44788;-73
2023/03/02 00:30:12;;;;;;;;;68.00;50.67;;;;;2.34;53.03;101763.66;4907057;28;45443;-73
2023/03/02 00:32:37;;;;;;;;;71.67;54.00;;;;;2.25;53.06;101769.09;4917638;28;45322;-73
2023/03/02 00:35:03;;;;;;;;;71.00;53.67;;;;;2.20;53.18;101760.03;4912767;28;44796;-72
2023/03/02 00:37:29;;;;;;;;;73.00;54.00;;;;;2.10;52.25;101757.53;4913947;28;45302;-72
2023/03/02 00:39:54;;;;;;;;;74.00;56.67;;;;;1.93;53.09;101738.97;4912470;28;45404;-72
2023/03/02 00:42:20;;;;;;;;;78.33;55.67;;;;;2.09;53.79;101768.75;4910207;28;45251;-73
2023/03/02 00:44:45;;;;;;;;;76.00;56.33;;;;;2.03;53.75;101764.00;4911262;28;45399;-73
2023/03/02 00:47:11;;;;;;;;;69.67;55.33;;;;;1.97;52.38;101759.25;4916807;28;45365;-73
2023/03/02 00:49:36;;;;;;;;;73.33;56.00;;;;;1.92;53.13;101763.19;4913773;28;45224;-73
2023/03/02 00:52:03;;;;;;;;;70.33;55.00;;;;;1.92;54.06;101768.41;4918919;28;46148;-73
2023/03/02 00:54:28;;;;;;;;;71.33;53.33;;;;;1.92;54.09;101770.13;4913668;28;45343;-73
2023/03/02 00:56:53;;;;;;;;;70.00;54.33;;;;;1.83;54.09;101765.13;4903685;28;45451;-73
2023/03/02 00:59:27;;;;;;;;;79.00;58.33;;;;;1.82;54.10;101767.59;4919837;28;45301;-73
2023/03/02 01:02:00;;;;;;;;;79.33;56.00;;;;;1.78;54.50;101766.47;4916193;28;45464;-73
2023/03/02 01:04:37;;;;;;;;;72.00;52.67;;;;;1.74;53.35;101778.38;4930580;28;45270;-73
2023/03/02 01:07:09;;;;;;;;;70.00;55.33;;;;;1.74;54.63;101778.38;4923218;28;45507;-73
2023/03/02 01:09:35;;;;;;;;;75.33;55.33;;;;;1.70;54.57;101775.41;4921597;28;45185;-73
2023/03/02 01:12:01;;;;;;;;;74.33;59.33;;;;;1.69;54.56;101777.13;4918479;28;45396;-73
2023/03/02 01:14:27;;;;;;;;;67.00;53.00;;;;;1.66;55.22;101782.09;4907930;28;45307;-72
2023/03/02 01:16:52;;;;;;;;;74.33;55.00;;;;;1.54;55.01;101763.84;4914646;28;44902;-73
2023/03/02 01:19:18;;;;;;;;;72.67;53.33;;;;;1.59;54.64;101768.50;4922166;28;46347;-72
2023/03/02 01:21:43;;;;;;;;;75.67;57.33;;;;;1.44;55.31;101740.47;4922968;28;45348;-72
2023/03/02 01:24:10;;;;;;;;;70.00;54.33;;;;;1.54;55.23;101766.47;4925012;28;45334;-73
2023/03/02 01:26:35;;;;;;;;;67.00;54.00;;;;;1.49;55.47;101762.59;4928502;28;45293;-72
2023/03/02 01:29:01;;;;;;;;;67.33;52.67;;;;;1.48;55.13;101762.47;4936366;28;45305;-72
2023/03/02 01:31:27;;;;;;;;;68.33;56.00;;;;;1.29;54.84;101737.63;4926759;28;46312;-73
2023/03/02 01:33:53;;;;;;;;;73.67;55.00;;;;;1.45;55.72;101767.44;4916395;28;45390;-73
2023/03/02 01:36:19;;;;;;;;;66.33;53.00;;;;;1.43;55.23;101775.16;4926942;28;45306;-73
2023/03/02 01:38:45;;;;;;;;;65.33;52.00;;;;;1.40;55.85;101763.56;4933716;28;45469;-73
2023/03/02 01:41:11;;;;;;;;;72.00;50.00;;;;;1.36;55.69;101758.94;4922401;28;45217;-73
2023/03/02 01:43:37;;;;;;;;;63.00;49.00;;;;;1.36;55.65;101764.13;4937492;28;45392;-73
2023/03/02 01:46:16;;;;;;;;;69.67;52.00;;;;;1.33;55.05;101759.59;4925999;28;45547;-73
2023/03/02 01:48:49;;;;;;;;;67.00;51.00;;;;;1.20;55.72;101739.50;4930916;28;45238;-73
2023/03/02 01:51:19;;;;;;;;;73.33;53.67;;;;;1.22;55.37;101745.75;4926024;28;45101;-73
2023/03/02 01:53:47;;;;;;;;;61.33;47.33;;;;;1.24;55.69;101752.00;4921819;28;46399;-73
2023/03/02 01:56:15;;;;;;;;;51.67;43.33;;;;;1.19;56.26;101737.69;4909932;28;45433;-73
2023/03/02 01:58:41;;;;;;;;;62.67;46.67;;;;;1.12;56.13;101727.59;4926360;28;45426;-73
2023/03/02 02:01:14;;;;;;;;;65.00;49.67;;;;;1.20;56.23;101744.72;4907664;28;45272;-73
2023/03/02 02:03:42;;;;;;;;;65.00;49.33;;;;;1.13;55.29;101745.06;4914714;28;45482;-73
2023/03/02 02:06:07;;;;;;;;;65.00;53.00;;;;;1.15;56.28;101748.69;4910476;28;45528;-73
2023/03/02 02:08:32;;;;;;;;;60.33;47.67;;;;;0.94;56.40;101716.69;4917357;28;45265;-73
2023/03/02 02:10:58;;;;;;;;;67.67;50.67;;;;;1.06;56.43;101743.66;4908874;28;45973;-73
2023/03/02 02:13:24;;;;;;;;;64.00;48.67;;;;;1.08;55.71;101739.47;4918309;28;45450;-73
2023/03/02 02:15:49;;;;;;;;;63.00;48.00;;;;;1.04;57.19;101744.34;4907710;28;45542;-73
2023/03/02 02:18:15;;;;;;;;;68.67;52.00;;;;;1.02;55.29;101744.22;4922239;28;45173;-73
2023/03/02 02:20:44;;;;;;;;;59.67;44.00;;;;;0.89;56.27;101721.50;4914111;28;45265;-73
2023/03/02 02:23:18;;;;;;;;;59.67;49.00;;;;;0.97;56.76;101735.13;4922697;28;45451;-73
2023/03/02 02:25:52;;;;;;;;;67.33;49.00;;;;;0.95;55.70;101741.00;4914466;28;45388;-73
2023/03/02 02:29:11;;;;;;;;;64.00;51.00;;;;;0.92;56.29;101738.16;4920913;28;45426;-73
2023/03/02 02:31:55;;;;;;;;;64.67;49.00;;;;;0.87;57.38;101736.13;4915077;28;46563;-73
2023/03/02 02:34:40;;;;;;;;;65.33;49.00;;;;;0.80;56.73;101722.50;4911663;28;45260;-73
2023/03/02 02:37:41;;;;;;;;;54.67;45.00;;;;;0.85;56.18;101737.69;4902269;28;45337;-73
2023/03/02 02:40:14;;;;;;;;;66.00;44.33;;;;;0.77;56.94;101730.97;4905736;28;45395;-73
2023/03/02 02:42:45;;;;;;;;;55.67;47.33;;;;;0.71;57.02;101709.69;4915773;28;45174;-72
2023/03/02 02:45:23;;;;;;;;;68.00;53.33;;;;;0.81;56.80;101733.06;4912149;28;45372;-72
2023/03/02 02:47:49;;;;;;;;;69.33;52.33;;;;;0.76;57.83;101718.78;4921327;28;45238;-72
2023/03/02 02:50:24;;;;;;;;;62.00;45.33;;;;;0.80;56.89;101717.31;4912585;28;45644;-73
2023/03/02 02:53:16;;;;;;;;;63.00;48.00;;;;;0.76;56.81;101713.56;4916787;28;46392;-72
2023/03/02 02:55:44;;;;;;;;;62.00;48.00;;;;;0.76;57.05;101718.78;4873978;29;45609;-73
2023/03/02 02:58:39;;;;;;;;;69.33;53.00;;;;;0.72;56.64;101714.09;4917533;28;44813;-72
2023/03/02 03:01:05;;;;;;;;;65.33;49.00;;;;;0.72;58.06;101715.78;4905621;28;46463;-70
2023/03/02 03:03:38;;;;;;;;;64.33;49.00;;;;;0.51;57.94;101684.72;4912579;28;45463;-72
2023/03/02 03:06:12;;;;;;;;;61.00;48.00;;;;;0.71;58.03;101708.78;4907887;28;45275;-72
2023/03/02 03:09:00;;;;;;;;;64.67;44.33;;;;;0.63;57.08;101702.97;4914575;28;45282;-72
2023/03/02 03:11:29;;;;;;;;;61.00;49.67;;;;;0.55;57.43;101685.84;4905570;28;45444;-73
2023/03/02 03:14:08;;;;;;;;;63.67;49.67;;;;;0.66;57.33;101716.22;4921926;28;45324;-72
2023/03/02 03:16:35;;;;;;;;;62.33;49.00;;;;;0.61;57.14;101715.84;4907301;28;45400;-73
2023/03/02 03:19:06;;;;;;;;;72.33;51.33;;;;;0.57;58.08;101705.09;4920725;28;45453;-72
2023/03/02 03:21:32;;;;;;;;;64.00;50.33;;;;;0.61;57.57;101714.94;4913322;28;45391;-73
2023/03/02 03:23:58;;;;;;;;;64.00;50.33;;;;;0.52;57.07;101701.22;4903568;28;47094;-73
2023/03/02 03:26:23;;;;;;;;;57.00;47.00;;;;;0.47;58.41;101702.56;4914925;28;45330;-73
2023/03/02 03:28:48;;;;;;;;;59.33;48.67;;;;;0.49;55.92;101701.88;4922437;28;44853;-72
2023/03/02 03:31:14;;;;;;;;;65.33;48.67;;;;;0.53;59.56;101719.53;4909728;28;45137;-72
2023/03/02 03:33:39;;;;;;;;;54.33;48.00;;;;;0.44;57.89;101709.31;4920812;28;45407;-72
2023/03/02 03:36:05;;;;;;;;;65.00;49.00;;;;;0.48;56.60;101709.56;4906266;28;45419;-72
2023/03/02 03:38:30;;;;;;;;;58.00;46.00;;;;;0.46;57.26;101709.44;4919187;28;44780;-72
2023/03/02 03:40:55;;;;;;;;;67.33;55.00;;;;;0.42;58.08;101702.19;4903324;28;45287;-72
2023/03/02 03:43:21;;;;;;;;;63.33;49.33;;;;;0.48;55.94;101717.34;4901175;28;46579;-72
2023/03/02 03:45:46;;;;;;;;;58.33;46.00;;;;;0.43;58.75;101712.72;4906292;28;45380;-72
2023/03/02 03:48:11;;;;;;;;;61.00;45.00;;;;;0.35;58.38;101693.00;4916789;28;45933;-72
2023/03/02 03:50:37;;;;;;;;;65.67;52.33;;;;;0.39;57.66;101697.66;4909997;28;45529;-72
2023/03/02 03:53:02;;;;;;;;;71.00;53.33;;;;;0.41;57.52;101710.78;4918292;28;45434;-72
2023/03/02 03:55:28;;;;;;;;;68.33;49.67;;;;;0.36;57.55;101702.59;4910001;28;45244;-71
2023/03/02 03:57:54;;;;;;;;;60.67;49.67;;;;;0.34;59.11;101703.28;4915639;28;45395;-71
2023/03/02 04:00:21;;;;;;;;;66.33;50.33;;;;;0.39;58.69;101714.94;4910796;28;45372;-71
2023/03/02 04:02:46;;;;;;;;;69.00;51.33;;;;;0.36;57.35;101715.59;4916386;28;46393;-71
2023/03/02 04:05:12;;;;;;;;;69.67;55.00;;;;;0.28;58.37;101703.72;4913667;28;45356;-72
2023/03/02 04:07:39;;;;;;;;;59.33;45.67;;;;;0.24;57.22;101693.81;4910389;28;45529;-72
2023/03/02 04:10:06;;;;;;;;;66.00;46.33;;;;;0.26;58.41;101702.66;4904656;28;45344;-72
2023/03/02 04:12:34;;;;;;;;;71.33;52.67;;;;;0.29;58.80;101709.81;4891755;28;47033;-72
2023/03/02 04:14:59;;;;;;;;;65.00;47.67;;;;;0.18;58.79;101690.75;4906935;28;46085;-72
2023/03/02 04:17:25;;;;;;;;;64.33;50.00;;;;;0.24;58.54;101704.22;4908934;28;45462;-72
2023/03/02 04:19:51;;;;;;;;;68.00;54.00;;;;;0.21;58.32;101697.09;4908827;28;45386;-72
2023/03/02 04:22:17;;;;;;;;;66.67;51.67;;;;;0.17;57.80;101700.25;4914576;28;45631;-72
2023/03/02 04:24:43;;;;;;;;;67.67;50.33;;;;;0.32;57.25;101730.84;4910108;28;45414;-72
2023/03/02 04:27:09;;;;;;;;;67.33;51.67;;;;;0.25;58.87;101723.34;4914300;28;45237;-72
2023/03/02 04:29:35;;;;;;;;;68.00;49.33;;;;;0.21;59.52;101712.69;4913129;28;45165;-72
2023/03/02 04:32:00;;;;;;;;;64.00;47.33;;;;;0.21;58.32;101706.59;4917622;28;45305;-72
2023/03/02 04:34:26;;;;;;;;;69.00;49.00;;;;;0.32;58.58;101720.44;4899505;28;45302;-72
2023/03/02 04:36:51;;;;;;;;;73.33;53.33;;;;;0.29;59.37;101731.50;4904752;28;45246;-72
2023/03/02 04:39:18;;;;;;;;;62.33;50.00;;;;;0.30;59.06;101735.00;4917815;28;45222;-72
2023/03/02 04:41:44;;;;;;;;;71.33;53.00;;;;;0.28;59.98;101732.31;4906648;28;46389;-72
2023/03/02 04:44:10;;;;;;;;;67.67;48.67;;;;;0.26;59.52;101731.28;4900040;28;45659;-72
2023/03/02 04:46:36;;;;;;;;;66.67;53.33;;;;;0.20;59.57;101722.97;4909916;28;45350;-72
2023/03/02 04:49:03;;;;;;;;;71.33;55.00;;;;;0.25;58.63;101732.03;4895782;28;45541;-72
2023/03/02 04:51:34;;;;;;;;;70.33;52.33;;;;;0.25;59.63;101737.22;4910826;28;45058;-72
2023/03/02 04:54:03;;;;;;;;;70.33;55.33;;;;;0.23;57.78;101738.81;4919595;28;45313;-72
2023/03/02 04:56:29;;;;;;;;;65.33;53.00;;;;;0.16;60.07;101727.00;4897860;28;45399;-72
2023/03/02 04:58:55;;;;;;;;;63.33;50.00;;;;;0.22;59.40;101744.78;4918538;28;45447;-72
2023/03/02 05:01:21;;;;;;;;;68.00;53.33;;;;;0.15;60.18;101729.50;4917819;28;45459;-72
2023/03/02 05:03:47;;;;;;;;;66.33;50.00;;;;;0.18;60.04;101732.34;4931815;28;45522;-72
2023/03/02 05:06:13;;;;;;;;;65.33;53.33;;;;;0.10;60.42;101723.00;4921399;28;45253;-72
2023/03/02 05:08:38;;;;;;;;;38.67;29.33;;;;;-0.03;59.37;101711.63;4921225;28;45313;-71
2023/03/02 05:11:05;;;;;;;;;70.33;55.00;;;;;0.06;60.34;101726.16;4919356;28;45613;-71
2023/03/02 05:13:30;;;;;;;;;65.33;55.00;;;;;0.15;59.82;101745.09;4921877;28;45433;-71
2023/03/02 05:15:57;;;;;;;;;70.00;55.33;;;;;0.13;60.46;101736.25;4916566;28;45376;-73
2023/03/02 05:18:23;;;;;;;;;72.67;54.67;;;;;0.09;59.30;101729.91;4912639;28;45798;-73
2023/03/02 05:20:50;;;;;;;;;70.33;52.33;;;;;0.04;60.32;101725.13;4922626;28;45292;-74
2023/03/02 05:23:22;;;;;;;;;70.00;53.67;;;;;0.03;60.08;101718.09;4931294;28;45372;-73
2023/03/02 05:25:52;;;;;;;;;73.33;58.67;;;;;0.08;59.35;101734.97;4925632;28;45250;-73
2023/03/02 05:28:19;;;;;;;;;73.67;55.00;;;;;0.03;59.86;101729.41;4917133;28;46045;-74
2023/03/02 05:30:45;;;;;;;;;70.00;56.00;;;;;0.06;60.17;101734.88;4918700;28;45309;-73
2023/03/02 05:33:11;;;;;;;;;71.33;55.00;;;;;-0.02;60.21;101723.84;4921097;28;45398;-73
2023/03/02 05:35:36;;;;;;;;;70.33;55.00;;;;;0.06;60.15;101731.38;4915434;28;45448;-74
2023/03/02 05:38:02;;;;;;;;;74.00;55.00;;;;;-0.05;57.71;101718.38;4917379;28;45547;-74
2023/03/02 05:40:28;;;;;;;;;73.67;55.00;;;;;-0.04;60.12;101728.00;4917109;28;45392;-73
2023/03/02 05:42:53;;;;;;;;;67.67;53.33;;;;;0.03;60.37;101742.41;4918973;28;45206;-72
2023/03/02 05:45:27;;;;;;;;;67.00;51.33;;;;;0.02;60.18;101735.38;4928451;28;45397;-72
2023/03/02 05:47:52;;;;;;;;;60.67;46.33;;;;;0.03;60.35;101738.88;4928024;28;45921;-74
2023/03/02 05:50:18;;;;;;;;;73.33;54.67;;;;;-0.03;59.84;101739.28;4922643;28;45248;-72
2023/03/02 05:52:47;;;;;;;;;70.33;54.67;;;;;-0.01;60.93;101738.63;4921383;28;45180;-73
2023/03/02 05:55:14;;;;;;;;;64.00;53.00;;;;;-0.04;59.26;101738.38;4916386;28;45578;-73
2023/03/02 05:57:40;;;;;;;;;76.00;60.67;;;;;-0.06;59.70;101737.34;4903533;28;45809;-72
2023/03/02 06:00:07;;;;;;;;;68.67;53.67;;;;;-0.02;60.63;101743.72;4912573;28;45510;-72
2023/03/02 06:02:32;;;;;;;;;68.00;50.00;;;;;-0.03;60.32;101745.41;4896310;28;45441;-72
2023/03/02 06:04:57;;;;;;;;;71.67;55.00;;;;;-0.13;59.82;101731.53;4916182;28;46309;-72
2023/03/02 06:07:22;;;;;;;;;70.00;56.33;;;;;-0.18;60.32;101733.75;4902025;28;45157;-73
2023/03/02 06:09:49;;;;;;;;;70.00;51.00;;;;;-0.11;60.01;101736.09;4910372;28;46618;-72
2023/03/02 06:12:16;;;;;;;;;73.67;54.33;;;;;-0.06;60.86;101747.75;4907587;28;45282;-71
2023/03/02 06:14:42;;;;;;;;;79.33;58.33;;;;;-0.05;61.50;101757.38;4913348;28;45467;-72
2023/03/02 06:17:07;;;;;;;;;68.67;55.33;;;;;-0.11;61.42;101753.34;4894793;28;45452;-72
2023/03/02 06:19:32;;;;;;;;;68.33;55.33;;;;;-0.13;61.05;101749.72;4915675;28;49506;-71
2023/03/02 06:21:58;;;;;;;;;69.33;53.00;;;;;-0.05;60.86;101774.66;4907671;28;48255;-72
2023/03/02 06:24:23;;;;;;;;;74.00;58.00;;;;;-0.14;60.29;101755.69;4917444;28;45344;-72
2023/03/02 06:26:49;;;;;;;;;73.33;58.00;;;;;-0.06;60.91;101772.81;4908316;28;45375;-71
2023/03/02 06:29:14;;;;;;;;;64.00;51.33;;;;;-0.19;61.29;101744.94;4918727;28;46221;-72
2023/03/02 06:31:39;;;;;;;;;68.00;52.67;;;;;-0.12;60.69;101760.22;4911197;28;45397;-71
2023/03/02 06:34:04;;;;;;;;;69.33;54.33;;;;;-0.10;60.96;101769.06;4921100;28;45418;-72
2023/03/02 06:36:30;;;;;;;;;70.67;54.00;;;;;-0.34;60.55;101730.66;4911743;28;45625;-71
2023/03/02 06:38:55;;;;;;;;;69.67;55.00;;;;;-0.10;61.60;101774.28;4922118;28;45408;-73
2023/03/02 06:41:21;;;;;;;;;69.67;54.67;;;;;-0.08;61.29;101783.09;4907695;28;45407;-72
2023/03/02 06:43:46;;;;;;;;;75.33;60.33;;;;;-0.07;61.41;101777.13;4923958;28;45303;-73
2023/03/02 06:46:12;;;;;;;;;72.00;55.00;;;;;-0.20;60.51;101763.88;4887540;28;46955;-73
2023/03/02 06:48:37;;;;;;;;;69.33;53.33;;;;;-0.21;60.64;101764.69;4921961;28;45434;-74
2023/03/02 06:51:03;;;;;;;;;72.67;57.67;;;;;-0.19;61.17;101763.13;4908374;28;45377;-73
2023/03/02 06:53:28;;;;;;;;;69.00;55.33;;;;;-0.09;61.28;101783.88;4912250;28;45232;-74
2023/03/02 18:03:43;;;;;;;;;57.50;47.25;;;;;8.55;46.21;101685.47;5807955;23;46635;-73
2023/03/02 18:06:09;;;;;;;;;54.50;43.75;;;;;8.39;45.84;101669.75;4962134;28;45553;-75
2023/03/02 18:08:35;;;;;;;;;44.50;38.50;;;;;8.47;46.51;101695.63;4961735;28;45436;-75
2023/03/02 18:11:01;;;;;;;;;57.75;45.00;;;;;8.38;46.85;101689.91;4962277;28;45168;-74
2023/03/02 18:13:26;;;;;;;;;60.75;49.50;;;;;8.47;46.28;101721.97;4961292;28;45493;-75
2023/03/02 18:15:52;;;;;;;;;55.00;43.75;;;;;8.15;46.87;101674.72;4962281;28;46057;-74
2023/03/02 18:18:17;;;;;;;;;58.00;45.00;;;;;8.20;45.85;101700.44;4961155;28;45237;-74
2023/03/02 18:20:42;;;;;;;;;57.25;45.75;;;;;8.32;47.44;101723.84;4962414;28;45323;-76
2023/03/02 18:23:10;;;;;;;;;56.50;46.75;;;;;8.36;46.66;101744.22;4962095;28;45428;-76
2023/03/02 18:25:35;;;;;;;;;53.25;39.75;;;;;8.27;46.86;101739.44;4959958;28;45441;-77
2023/03/02 18:28:01;;;;;;;;;57.00;45.25;;;;;8.18;47.42;101717.03;4960342;28;56382;-76
2023/03/02 18:30:26;;;;;;;;;57.50;46.25;;;;;8.11;46.10;101721.06;4961982;28;45267;-76
2023/03/02 18:32:52;;;;;;;;;52.50;42.75;;;;;8.05;47.07;101720.78;4962768;28;45219;-76
2023/03/02 18:35:18;;;;;;;;;58.50;46.50;;;;;8.08;46.58;101732.34;4961898;28;46088;-76
2023/03/02 18:37:43;;;;;;;;;59.00;41.25;;;;;7.98;47.65;101727.47;4961623;28;45308;-75
2023/03/02 18:40:10;;;;;;;;;55.25;44.00;;;;;7.95;47.92;101726.41;4961452;28;45358;-75
2023/03/02 18:42:35;;;;;;;;;55.75;43.50;;;;;7.87;46.26;101720.78;4961544;28;45576;-75
2023/03/02 18:45:00;;;;;;;;;59.25;43.25;;;;;8.04;46.29;101762.00;4957553;28;45351;-74
2023/03/02 18:47:26;;;;;;;;;54.50;44.50;;;;;7.98;47.03;101758.13;4948848;28;45236;-76
2023/03/02 18:49:52;;;;;;;;;61.75;49.00;;;;;7.94;47.04;101759.72;4960735;28;45370;-76
2023/03/02 18:52:18;;;;;;;;;66.00;48.00;;;;;7.70;48.14;101724.25;4961275;28;44732;-74
2023/03/02 18:54:45;;;;;;;;;59.00;44.25;;;;;7.72;48.34;101744.56;4961001;28;45321;-74
2023/03/02 18:57:12;;;;;;;;;63.25;46.25;;;;;7.76;48.52;101751.81;4961646;28;45283;-75
2023/03/02 18:59:38;;;;;;;;;57.75;44.50;;;;;7.69;48.28;101747.03;4960833;28;45230;-75
2023/03/02 19:02:10;;;;;;;;;58.00;46.00;;;;;7.54;47.12;101726.13;4956206;28;45410;-75
2023/03/02 19:04:35;;;;;;;;;59.00;49.25;;;;;7.68;48.13;101761.03;4954290;28;46194;-74
2023/03/02 19:07:01;;;;;;;;;58.50;46.00;;;;;7.71;47.61;101769.09;4957440;28;45457;-74
2023/03/02 19:09:28;;;;;;;;;56.50;45.75;;;;;7.59;48.98;101765.84;4940474;28;45330;-75
2023/03/02 19:11:53;;;;;;;;;56.25;47.25;;;;;7.64;47.96;101777.47;4955392;28;45283;-76
2023/03/02 19:14:18;;;;;;;;;62.25;48.00;;;;;7.36;48.86;101735.69;4959992;28;45346;-75
2023/03/02 19:16:44;;;;;;;;;58.75;46.75;;;;;7.54;49.22;101773.47;4954526;28;45557;-77
2023/03/02 19:19:10;;;;;;;;;57.75;45.00;;;;;7.50;49.24;101776.75;4951056;28;47152;-77
2023/03/02 19:21:35;;;;;;;;;61.50;46.25;;;;;7.24;50.11;101737.69;4957426;28;45237;-75
2023/03/02 19:24:00;;;;;;;;;60.00;47.00;;;;;7.14;49.01;101724.06;4960787;28;45616;-75
2023/03/02 19:26:26;;;;;;;;;59.00;47.25;;;;;7.33;48.21;101764.44;4961141;28;45145;-74
2023/03/02 19:28:51;;;;;;;;;56.00;44.00;;;;;7.37;49.51;101776.97;4960780;28;45533;-75
2023/03/02 19:31:17;;;;;;;;;61.50;47.25;;;;;7.34;49.39;101779.44;4954027;28;45386;-74
2023/03/02 19:33:43;;;;;;;;;61.75;51.25;;;;;7.32;49.65;101786.31;4960184;28;45261;-74
2023/03/02 19:36:09;;;;;;;;;58.25;45.75;;;;;7.22;49.36;101770.88;4960589;28;45316;-74
2023/03/02 19:38:39;;;;;;;;;58.25;47.50;;;;;6.92;49.41;101731.63;4955871;28;45493;-76
2023/03/02 19:41:05;;;;;;;;;60.75;47.25;;;;;7.11;48.62;101773.84;4960443;28;45465;-75
2023/03/02 19:43:30;;;;;;;;;58.75;46.50;;;;;7.08;48.96;101780.63;4956143;28;45267;-75
2023/03/02 19:45:56;;;;;;;;;67.25;48.50;;;;;6.82;50.27;101737.19;4956506;28;45388;-73
2023/03/02 19:48:21;;;;;;;;;64.75;50.00;;;;;6.73;49.86;101729.72;4944599;28;44719;-74
2023/03/02 19:50:47;;;;;;;;;62.50;50.25;;;;;6.93;49.51;101768.47;4959961;28;45432;-75
2023/03/02 19:53:12;;;;;;;;;59.00;44.25;;;;;6.85;49.41;101755.75;4959934;28;45453;-76
2023/03/02 19:55:38;;;;;;;;;59.00;48.50;;;;;6.88;50.08;101771.66;4941889;28;45270;-76
2023/03/02 19:58:06;;;;;;;;;71.00;53.00;;;;;6.94;50.34;101787.78;4960211;28;45339;-75
2023/03/02 20:00:32;;;;;;;;;65.00;49.25;;;;;6.64;51.29;101739.72;4942702;28;46191;-74
2023/03/02 20:02:59;;;;;;;;;62.50;49.50;;;;;6.63;50.00;101754.53;4960497;28;46014;-75
2023/03/02 20:05:26;;;;;;;;;69.50;53.00;;;;;6.79;49.99;101781.69;4957824;28;45452;-74
2023/03/02 20:07:52;;;;;;;;;63.25;48.25;;;;;6.61;49.57;101765.78;4959458;28;45718;-74
2023/03/02 20:10:36;;;;;;;;;80.33;61.00;;;;;6.80;50.79;101800.16;4941882;28;45888;-73
2023/03/02 20:13:03;;;;;;;;;65.50;52.00;;;;;6.77;50.67;101804.34;4954423;28;45558;-76
2023/03/02 20:15:30;;;;;;;;;61.50;49.25;;;;;6.72;51.92;101799.75;4955144;28;45582;-75
2023/03/02 20:17:58;;;;;;;;;63.25;49.00;;;;;6.71;51.04;101808.44;4949177;28;45395;-75
2023/03/02 20:20:25;;;;;;;;;58.50;43.75;;;;;6.68;51.05;101805.63;4957218;28;45623;-75
2023/03/02 20:22:51;;;;;;;;;63.75;49.00;;;;;6.65;51.70;101801.94;4959328;28;45432;-75
2023/03/02 20:25:18;;;;;;;;;61.00;47.50;;;;;6.41;49.53;101770.84;4959281;28;45521;-75
2023/03/02 20:27:44;;;;;;;;;64.75;49.50;;;;;6.47;51.34;101783.44;4925780;28;45335;-75
2023/03/02 20:30:13;;;;;;;;;60.75;48.50;;;;;6.61;51.26;101814.00;4958990;28;45757;-74
2023/03/02 20:32:39;;;;;;;;;71.50;53.00;;;;;6.52;50.46;101799.44;4934180;28;47393;-75
2023/03/02 20:35:05;;;;;;;;;70.75;56.00;;;;;6.57;52.11;101813.72;4956360;28;45415;-75
2023/03/02 20:37:30;;;;;;;;;71.00;52.75;;;;;6.38;52.46;101794.28;4951340;28;45362;-74
2023/03/02 20:39:56;;;;;;;;;67.75;50.50;;;;;6.44;52.28;101810.41;4952741;28;45383;-74
2023/03/02 20:42:22;;;;;;;;;66.75;52.00;;;;;6.49;51.38;101824.69;4954440;28;45524;-74
2023/03/02 20:44:47;;;;;;;;;61.25;50.00;;;;;6.46;50.85;101818.38;4959124;28;45624;-75
2023/03/02 20:47:14;;;;;;;;;67.00;48.25;;;;;6.44;52.75;101822.63;4959599;28;45434;-76
2023/03/02 20:49:40;;;;;;;;;60.25;49.00;;;;;6.43;51.40;101823.44;4932865;28;46049;-75
2023/03/02 20:52:07;;;;;;;;;68.25;51.00;;;;;6.42;51.23;101821.66;4958349;28;45686;-75
2023/03/02 20:54:39;;;;;;;;;66.25;52.00;;;;;6.39;51.72;101825.00;4948388;28;44854;-79
2023/03/02 20:57:07;;;;;;;;;61.50;49.25;;;;;6.23;51.28;101802.19;4949831;28;45374;-74
2023/03/02 20:59:33;;;;;;;;;65.25;48.25;;;;;6.03;52.33;101768.66;4957535;28;45620;-75
2023/03/02 21:01:58;;;;;;;;;61.75;49.50;;;;;6.33;53.51;101831.59;4958596;28;45458;-73
2023/03/02 21:04:24;;;;;;;;;67.25;51.75;;;;;6.32;53.19;101841.19;4958077;28;45326;-75
2023/03/02 21:06:50;;;;;;;;;59.00;44.50;;;;;6.32;51.10;101835.06;4959307;28;45275;-74
2023/03/02 21:09:16;;;;;;;;;70.25;49.00;;;;;6.20;52.27;101824.75;4939313;28;46044;-76
2023/03/02 21:11:43;;;;;;;;;71.75;53.00;;;;;6.27;51.88;101833.09;4958851;28;45379;-75
2023/03/02 21:14:09;;;;;;;;;72.75;54.00;;;;;6.08;53.89;101805.63;4942665;28;45291;-76
2023/03/02 21:16:37;;;;;;;;;69.25;51.25;;;;;6.21;52.73;101831.81;4932503;28;45287;-75
2023/03/02 21:19:05;;;;;;;;;69.00;53.75;;;;;6.19;53.27;101839.59;4953577;28;45191;-75
2023/03/02 21:21:30;;;;;;;;;71.50;55.50;;;;;5.95;53.02;101804.03;4958924;28;46212;-75
2023/03/02 21:23:56;;;;;;;;;66.50;53.00;;;;;6.14;53.46;101840.16;4954337;28;45399;-75
2023/03/02 21:26:22;;;;;;;;;71.50;51.75;;;;;5.88;53.16;101808.00;4940088;28;45459;-76
2023/03/02 21:28:47;;;;;;;;;71.75;52.00;;;;;5.92;52.02;101807.34;4942190;28;46743;-75
2023/03/02 21:31:16;;;;;;;;;63.75;49.00;;;;;5.97;54.24;101826.94;4959899;28;45307;-75
2023/03/02 21:33:42;;;;;;;;;68.33;54.33;;;;;5.95;52.73;101827.66;4948136;28;45390;-74
2023/03/02 21:36:23;;;;;;;;;68.75;53.75;;;;;5.97;53.04;101839.16;4962798;28;45350;-75
2023/03/02 21:38:49;;;;;;;;;78.00;56.67;;;;;5.99;54.24;101848.00;4962147;28;45291;-75
2023/03/02 21:41:15;;;;;;;;;76.67;58.00;;;;;5.88;53.38;101834.22;4945083;28;47295;-75
2023/03/02 21:43:40;;;;;;;;;79.67;59.00;;;;;5.34;53.83;101746.16;4961531;28;45360;-74
2023/03/02 21:46:06;;;;;;;;;72.33;55.00;;;;;5.50;54.52;101785.59;4962539;28;45354;-77
2023/03/02 21:48:31;;;;;;;;;73.00;54.00;;;;;5.81;54.88;101839.91;4943792;28;45858;-76
2023/03/02 21:50:57;;;;;;;;;70.00;54.00;;;;;5.58;55.19;101820.16;4962108;28;45314;-75
2023/03/02 21:53:23;;;;;;;;;82.00;56.33;;;;;5.66;52.84;101832.03;4950919;28;45438;-74
